Time;durP1;ratioP1;P1;durP2;ratioP2;P2;SDS_P1;SDS_P2;PMS_P1;PMS_P2;Temp;Humidity;BMP_temperature;BMP_pressure;BME280_temperature;BME280_humidity;BME280_pressure;Samples;Min_cycle;Max_cycle;Signal;HPM_P1;HPM_P2
2021/07/12 00:00:50;;;;;;;4.00;3.30;;;15.60;99.90;;;;;;6295584;28;20382;-80
2021/07/12 00:03:50;;;;;;;3.90;3.42;;;15.50;99.90;;;;;;6294893;28;20032;-80
2021/07/12 00:06:51;;;;;;;3.58;3.22;;;15.60;99.90;;;;;;6295032;28;20032;-79
2021/07/12 00:09:51;;;;;;;4.25;3.08;;;15.80;99.90;;;;;;6294184;28;20039;-80
2021/07/12 00:12:52;;;;;;;3.65;3.08;;;15.80;99.90;;;;;;6293811;28;20048;-80
2021/07/12 00:15:53;;;;;;;4.72;3.38;;;15.70;99.90;;;;;;6277002;28;20033;-81
2021/07/12 00:18:53;;;;;;;4.00;2.95;;;15.80;99.90;;;;;;6293241;28;20028;-80
2021/07/12 00:21:54;;;;;;;3.70;3.03;;;15.80;99.90;;;;;;6293972;28;20032;-79
2021/07/12 00:24:54;;;;;;;3.88;3.33;;;15.70;99.90;;;;;;6294433;28;20481;-81
2021/07/12 00:27:56;;;;;;;4.60;3.25;;;15.60;99.90;;;;;;6293903;28;20518;-79
2021/07/12 00:30:56;;;;;;;4.53;3.35;;;15.50;99.90;;;;;;6276250;28;20037;-80
2021/07/12 00:33:57;;;;;;;3.63;3.00;;;15.50;99.90;;;;;;6294712;28;20589;-81
2021/07/12 00:36:57;;;;;;;5.57;3.20;;;15.60;99.90;;;;;;6292814;28;20486;-80
2021/07/12 00:39:58;;;;;;;5.35;3.40;;;15.40;99.90;;;;;;6292621;28;20032;-80
2021/07/12 00:42:59;;;;;;;4.03;3.15;;;15.70;99.90;;;;;;6293586;28;20036;-78
2021/07/12 00:46:00;;;;;;;4.27;3.00;;;15.30;99.90;;;;;;6294238;28;20472;-80
2021/07/12 00:49:01;;;;;;;5.90;3.30;;;;;;;;;;6294073;28;20028;-78
2021/07/12 00:52:02;;;;;;;4.57;3.00;;;;;;;;;;6291325;28;20083;-80
2021/07/12 00:55:15;;;;;;;3.20;2.90;;;15.10;99.90;;;;;;6294145;28;20068;-79
2021/07/12 00:58:21;;;;;;;4.00;3.60;;;15.40;99.90;;;;;;6292975;28;20029;-79
2021/07/12 01:01:21;;;;;;;4.40;3.13;;;15.20;99.90;;;;;;6276689;28;20028;-80
2021/07/12 01:04:22;;;;;;;3.45;2.88;;;15.10;99.90;;;;;;6292551;28;20422;-79
2021/07/12 01:07:23;;;;;;;4.10;3.15;;;;;;;;;;6276405;28;20107;-79
2021/07/12 01:10:24;;;;;;;5.00;3.30;;;15.10;99.90;;;;;;6293870;28;20071;-79
2021/07/12 01:13:45;;;;;;;4.97;3.60;;;15.20;99.90;;;;;;6293472;28;20037;-79
2021/07/12 01:17:25;;;;;;;3.95;3.47;;;15.20;99.90;;;;;;6292167;28;20107;-80
2021/07/12 01:21:09;;;;;;;7.28;3.35;;;15.10;99.90;;;;;;6242843;28;20058;-80
2021/07/12 01:24:37;;;;;;;4.57;2.80;;;15.10;99.90;;;;;;6240468;28;20076;-80
2021/07/12 01:28:08;;;;;;;7.55;3.30;;;15.10;99.90;;;;;;6240453;28;20124;-78
2021/07/12 01:31:56;;;;;;;3.75;2.85;;;15.30;99.90;;;;;;6240481;28;20404;-79
2021/07/12 01:35:19;;;;;;;4.55;3.15;;;15.20;99.90;;;;;;6215764;28;20046;-78
2021/07/12 01:38:40;;;;;;;5.47;3.05;;;15.30;99.90;;;;;;6199538;28;20033;-80
2021/07/12 01:42:03;;;;;;;3.72;3.33;;;15.30;99.90;;;;;;6215815;28;20049;-80
2021/07/12 01:45:06;;;;;;;3.67;3.30;;;15.20;99.90;;;;;;6215535;28;20046;-79
2021/07/12 01:48:11;;;;;;;7.65;3.50;;;14.70;99.90;;;;;;6215196;28;20034;-79
2021/07/12 01:51:12;;;;;;;4.72;3.30;;;14.80;99.90;;;;;;6215045;28;20054;-80
2021/07/12 01:54:21;;;;;;;4.60;3.20;;;15.00;99.90;;;;;;6176495;28;20544;-80
2021/07/12 01:57:24;;;;;;;4.68;3.40;;;14.80;99.90;;;;;;6215133;28;20555;-79
2021/07/12 02:00:24;;;;;;;4.25;2.83;;;14.90;99.90;;;;;;6223543;28;20041;-80
2021/07/12 02:03:25;;;;;;;5.10;3.20;;;14.90;99.90;;;;;;6271111;28;20106;-81
2021/07/12 02:06:26;;;;;;;3.83;3.38;;;14.90;99.90;;;;;;6274034;28;20078;-80
2021/07/12 02:09:26;;;;;;;3.70;3.10;;;14.90;99.90;;;;;;6274496;28;20422;-80
2021/07/12 02:12:27;;;;;;;3.10;2.78;;;14.90;99.90;;;;;;6274602;28;20123;-79
2021/07/12 02:15:28;;;;;;;3.97;3.20;;;14.80;99.90;;;;;;6291096;28;20024;-81
2021/07/12 02:18:30;;;;;;;4.93;3.28;;;14.90;99.90;;;;;;6274403;28;20048;-79
2021/07/12 02:21:32;;;;;;;4.72;2.97;;;14.90;99.90;;;;;;6275299;28;20123;-79
2021/07/12 02:24:33;;;;;;;3.30;3.00;;;14.90;99.90;;;;;;6274882;28;20131;-78
2021/07/12 02:27:33;;;;;;;5.25;3.28;;;14.90;99.90;;;;;;6291486;28;20028;-80
2021/07/12 02:30:34;;;;;;;3.15;2.85;;;14.80;99.90;;;;;;6274466;28;20040;-80
2021/07/12 02:33:35;;;;;;;3.33;3.00;;;14.90;99.90;;;;;;6274760;28;20040;-79
2021/07/12 02:36:36;;;;;;;4.32;3.13;;;14.80;99.90;;;;;;6274248;28;20031;-79
2021/07/12 02:39:36;;;;;;;4.43;3.30;;;14.90;99.90;;;;;;6274614;28;20029;-79
2021/07/12 02:42:38;;;;;;;8.02;3.80;;;15.00;99.90;;;;;;6257864;28;20509;-80
2021/07/12 02:45:39;;;;;;;4.95;3.85;;;14.80;99.90;;;;;;6274448;28;20056;-80
2021/07/12 02:48:39;;;;;;;6.53;4.43;;;14.70;99.90;;;;;;6291985;28;20144;-79
2021/07/12 02:51:44;;;;;;;5.93;3.72;;;14.70;99.90;;;;;;6257498;28;20053;-79
2021/07/12 02:54:47;;;;;;;6.60;3.88;;;14.60;99.90;;;;;;6257744;28;20074;-80
2021/07/12 02:57:47;;;;;;;3.80;3.30;;;14.50;99.90;;;;;;6274637;28;20021;-81
2021/07/12 03:00:48;;;;;;;5.20;3.28;;;14.80;99.90;;;;;;6290652;28;20067;-79
2021/07/12 03:03:49;;;;;;;4.55;3.05;;;;;;;;;;6292258;28;20025;-79
2021/07/12 03:06:52;;;;;;;4.15;3.03;;;14.60;99.90;;;;;;6291103;28;20025;-79
2021/07/12 03:09:53;;;;;;;5.47;3.35;;;;;;;;;;6257772;28;20457;-78
2021/07/12 03:12:56;;;;;;;7.40;4.10;;;14.50;99.90;;;;;;6274385;28;20041;-79
2021/07/12 03:15:56;;;;;;;4.65;2.88;;;14.60;99.90;;;;;;6260169;28;20158;-79
2021/07/12 03:18:59;;;;;;;5.25;3.17;;;14.60;99.90;;;;;;6279079;28;20033;-81
2021/07/12 03:22:02;;;;;;;3.92;3.38;;;14.70;99.90;;;;;;6261651;28;20036;-79
2021/07/12 03:25:02;;;;;;;;;;;14.70;99.90;;;;;;6262383;28;20029;-79
2021/07/12 03:28:04;;;;;;;4.30;3.00;;;14.60;99.90;;;;;;6295910;28;20272;-80
2021/07/12 03:31:06;;;;;;;3.38;2.97;;;14.70;99.90;;;;;;6278043;28;20032;-79
2021/07/12 03:34:08;;;;;;;6.23;3.07;;;14.70;99.90;;;;;;6261398;28;20505;-80
2021/07/12 03:37:09;;;;;;;3.20;2.90;;;14.70;99.90;;;;;;6261713;28;20274;-80
2021/07/12 03:40:10;;;;;;;3.40;2.70;;;15.20;99.90;;;;;;6277692;28;20072;-80
2021/07/12 03:43:11;;;;;;;5.65;3.03;;;14.70;99.90;;;;;;6277645;28;20040;-80
2021/07/12 03:46:12;;;;;;;3.17;2.88;;;14.50;99.90;;;;;;6277822;28;20115;-81
2021/07/12 03:49:14;;;;;;;4.38;3.25;;;14.60;99.90;;;;;;6295112;28;20036;-80
2021/07/12 03:52:15;;;;;;;5.03;2.80;;;14.60;99.90;;;;;;6277660;28;20064;-80
2021/07/12 03:55:17;;;;;;;4.22;3.00;;;14.70;99.90;;;;;;6261034;28;20535;-79
2021/07/12 03:58:17;;;;;;;4.97;3.30;;;14.70;99.90;;;;;;6277640;28;20467;-80
2021/07/12 04:01:22;;;;;;;5.75;3.22;;;14.70;99.90;;;;;;6294324;28;20048;-79
2021/07/12 04:04:22;;;;;;;4.30;3.38;;;14.60;99.90;;;;;;6278004;28;20119;-80
2021/07/12 04:07:23;;;;;;;5.20;3.90;;;14.50;99.90;;;;;;6293712;28;20576;-79
2021/07/12 04:10:23;;;;;;;6.18;3.42;;;14.40;99.90;;;;;;6293599;28;20505;-79
2021/07/12 04:13:24;;;;;;;7.50;4.65;;;14.40;99.90;;;;;;6277221;28;20940;-79
2021/07/12 04:16:24;;;;;;;4.90;3.92;;;14.50;99.90;;;;;;6276776;28;20082;-80
2021/07/12 04:19:25;;;;;;;5.05;3.75;;;14.90;99.90;;;;;;6292986;28;20035;-81
2021/07/12 04:22:26;;;;;;;5.75;3.67;;;15.20;99.90;;;;;;6294641;28;20524;-80
2021/07/12 04:25:26;;;;;;;5.45;3.20;;;15.60;99.90;;;;;;6293143;28;20474;-80
2021/07/12 04:28:27;;;;;;;3.85;2.97;;;16.10;99.90;;;;;;6293670;28;20035;-80
2021/07/12 04:31:28;;;;;;;4.28;3.08;;;16.60;99.90;;;;;;6275764;28;20044;-80
2021/07/12 04:34:29;;;;;;;3.85;3.20;;;17.00;99.90;;;;;;6275026;28;20043;-80
2021/07/12 04:37:29;;;;;;;3.08;2.78;;;17.70;99.90;;;;;;6276917;28;20032;-82
2021/07/12 04:40:30;;;;;;;5.53;2.80;;;18.00;99.90;;;;;;6275745;28;20056;-81
2021/07/12 04:43:30;;;;;;;6.85;3.55;;;18.50;99.90;;;;;;6291970;28;20032;-81
2021/07/12 04:46:31;;;;;;;7.43;3.40;;;18.70;99.90;;;;;;6294320;28;20075;-81
2021/07/12 04:49:32;;;;;;;7.00;3.50;;;19.00;99.90;;;;;;6293003;28;20033;-80
2021/07/12 04:52:32;;;;;;;4.32;2.85;;;19.30;99.90;;;;;;6276198;28;20456;-80
2021/07/12 04:55:33;;;;;;;3.22;2.60;;;19.40;99.90;;;;;;6293011;28;20098;-81
2021/07/12 04:58:37;;;;;;;3.92;2.60;;;19.30;99.90;;;;;;6292884;28;20025;-80
2021/07/12 05:01:38;;;;;;;3.90;3.00;;;19.30;99.90;;;;;;6258809;28;20040;-81
2021/07/12 05:04:38;;;;;;;4.78;3.00;;;19.10;99.90;;;;;;6258560;28;20558;-77
2021/07/12 05:07:39;;;;;;;4.25;2.90;;;19.00;99.90;;;;;;6292563;28;20414;-81
2021/07/12 05:10:41;;;;;;;3.08;2.78;;;19.00;99.90;;;;;;6291986;28;20032;-81
2021/07/12 05:13:43;;;;;;;3.78;2.85;;;18.90;99.90;;;;;;6259125;28;20032;-80
2021/07/12 05:16:44;;;;;;;;;;;19.00;99.90;;;;;;6293468;28;20429;-80
2021/07/12 05:19:44;;;;;;;3.10;2.80;;;19.10;99.90;;;;;;6291742;28;19911;-80
2021/07/12 05:22:45;;;;;;;3.42;3.08;;;19.20;99.90;;;;;;6275052;28;20029;-77
2021/07/12 05:25:46;;;;;;;3.90;2.72;;;19.60;99.90;;;;;;6291996;28;20359;-77
2021/07/12 05:28:46;;;;;;;4.20;2.70;;;19.50;99.90;;;;;;6291751;28;20192;-78
2021/07/12 05:31:47;;;;;;;3.03;2.70;;;19.60;99.90;;;;;;6292733;28;20028;-79
2021/07/12 05:34:48;;;;;;;3.22;2.92;;;19.60;99.90;;;;;;6290161;28;20032;-78
2021/07/12 05:37:48;;;;;;;6.72;2.60;;;19.70;99.90;;;;;;6282334;28;20697;-78
2021/07/12 05:40:49;;;;;;;3.28;2.60;;;19.40;99.90;;;;;;6283200;28;20035;-78
2021/07/12 05:43:49;;;;;;;3.60;2.72;;;19.50;99.90;;;;;;6291738;28;20460;-81
2021/07/12 05:46:50;;;;;;;3.85;2.90;;;19.80;99.90;;;;;;6274601;28;20364;-79
2021/07/12 05:49:50;;;;;;;3.20;2.90;;;19.70;99.90;;;;;;6290824;28;20067;-78
2021/07/12 05:52:51;;;;;;;5.85;2.95;;;20.20;99.90;;;;;;6273931;28;20093;-78
2021/07/12 05:55:52;;;;;;;4.65;2.75;;;;;;;;;;6274678;28;20032;-78
2021/07/12 05:58:52;;;;;;;3.10;2.80;;;20.50;99.90;;;;;;6291695;28;20150;-78
2021/07/12 06:01:53;;;;;;;2.95;2.63;;;20.60;99.90;;;;;;6274718;28;20032;-80
2021/07/12 06:04:54;;;;;;;4.82;3.38;;;20.60;99.90;;;;;;6292758;28;20044;-79
2021/07/12 06:07:54;;;;;;;4.00;2.90;;;20.70;99.90;;;;;;6274819;28;20032;-79
2021/07/12 06:10:55;;;;;;;2.92;2.60;;;20.70;99.90;;;;;;6274625;28;20029;-79
2021/07/12 06:13:56;;;;;;;3.22;2.92;;;20.60;99.90;;;;;;6291289;28;20029;-79
2021/07/12 06:16:56;;;;;;;3.22;2.92;;;20.80;99.90;;;;;;6292611;28;20082;-79
2021/07/12 06:19:57;;;;;;;4.32;2.70;;;20.90;99.90;;;;;;6292758;28;20032;-79
2021/07/12 06:22:58;;;;;;;3.60;2.50;;;21.20;99.90;;;;;;6291260;28;20059;-78
2021/07/12 06:25:58;;;;;;;3.25;2.65;;;21.50;99.90;;;;;;6291367;28;20036;-80
2021/07/12 06:28:59;;;;;;;4.43;2.78;;;21.90;99.90;;;;;;6292657;28;20465;-79
2021/07/12 06:31:59;;;;;;;3.45;2.83;;;22.40;99.90;;;;;;6274497;28;20036;-79
2021/07/12 06:35:00;;;;;;;3.35;3.05;;;23.10;99.50;;;;;;6274250;28;20631;-78
2021/07/12 06:38:01;;;;;;;5.70;3.00;;;23.80;98.00;;;;;;6274011;28;20025;-80
2021/07/12 06:41:01;;;;;;;3.67;2.67;;;24.60;95.90;;;;;;6292492;28;20063;-77
2021/07/12 06:44:02;;;;;;;2.65;2.40;;;25.20;94.00;;;;;;6274019;28;20051;-78
2021/07/12 06:47:03;;;;;;;2.47;2.28;;;25.80;93.00;;;;;;6274638;28;20838;-78
2021/07/12 06:50:04;;;;;;;2.90;2.60;;;26.40;91.90;;;;;;6258953;28;20160;-80
2021/07/12 06:53:05;;;;;;;2.72;2.53;;;26.90;91.50;;;;;;6295306;28;20097;-78
2021/07/12 06:56:06;;;;;;;4.63;2.77;;;27.20;89.10;;;;;;6279020;28;20119;-78
2021/07/12 06:59:07;;;;;;;3.03;2.73;;;27.00;88.80;;;;;;6296280;28;20065;-79
2021/07/12 07:02:08;;;;;;;2.87;2.63;;;26.30;87.30;;;;;;6295490;28;20421;-78
2021/07/12 07:05:09;;;;;;;3.63;2.37;;;26.20;88.60;;;;;;6294963;28;20032;-78
2021/07/12 07:08:09;;;;;;;2.95;2.63;;;26.10;86.80;;;;;;6295207;28;20032;-78
2021/07/12 07:11:10;;;;;;;3.00;2.70;;;26.20;81.30;;;;;;6295075;28;20052;-78
2021/07/12 07:14:11;;;;;;;2.60;2.40;;;26.10;80.70;;;;;;6278627;28;20024;-78
2021/07/12 07:17:11;;;;;;;2.87;2.57;;;25.90;81.30;;;;;;6260961;28;20025;-79
2021/07/12 07:20:12;;;;;;;2.70;2.50;;;25.60;80.60;;;;;;6278038;28;20111;-82
2021/07/12 07:23:13;;;;;;;4.17;2.60;;;25.40;81.20;;;;;;6295501;28;20025;-80
2021/07/12 07:26:13;;;;;;;4.17;2.70;;;25.40;80.10;;;;;;6295486;28;20036;-79
2021/07/12 07:29:15;;;;;;;2.60;2.40;;;25.30;83.30;;;;;;6277776;28;20047;-80
2021/07/12 07:32:16;;;;;;;;;;;25.10;81.80;;;;;;6296302;28;20040;-80
2021/07/12 07:35:17;;;;;;;3.25;2.92;;;24.90;84.20;;;;;;6294795;28;19908;-80
2021/07/12 07:38:17;;;;;;;4.32;2.83;;;24.80;90.00;;;;;;6294514;28;20024;-81
2021/07/12 07:41:19;;;;;;;3.23;2.93;;;24.50;92.20;;;;;;6296132;28;20036;-78
2021/07/12 07:44:20;;;;;;;5.55;3.00;;;24.40;93.20;;;;;;6277933;28;20089;-78
2021/07/12 07:47:22;;;;;;;5.10;3.13;;;24.20;93.60;;;;;;6295061;28;20032;-80
2021/07/12 07:50:22;;;;;;;4.80;3.10;;;24.00;94.20;;;;;;6294327;28;20048;-80
2021/07/12 07:53:31;;;;;;;7.83;3.53;;;23.70;94.40;;;;;;6295585;28;20577;-81
2021/07/12 07:56:31;;;;;;;5.78;3.00;;;23.50;95.20;;;;;;6261262;28;20135;-81
2021/07/12 07:59:32;;;;;;;4.15;3.10;;;23.40;96.80;;;;;;6260810;28;20103;-80
2021/07/12 08:02:33;;;;;;;5.13;3.40;;;23.40;96.70;;;;;;6276748;28;20028;-80
2021/07/12 08:05:33;;;;;;;4.45;3.10;;;23.50;96.20;;;;;;6276656;28;20089;-80
2021/07/12 08:08:34;;;;;;;4.93;3.40;;;23.50;96.90;;;;;;6277227;28;20039;-80
2021/07/12 08:11:35;;;;;;;3.83;3.10;;;23.50;96.10;;;;;;6293805;28;20390;-81
2021/07/12 08:14:35;;;;;;;3.60;3.20;;;23.70;96.60;;;;;;6295176;28;20373;-80
2021/07/12 08:17:37;;;;;;;3.25;2.92;;;23.80;96.60;;;;;;6260367;28;20032;-80
2021/07/12 08:20:38;;;;;;;9.00;3.53;;;23.80;95.80;;;;;;6293386;28;20024;-80
2021/07/12 08:23:41;;;;;;;4.22;3.00;;;23.90;96.60;;;;;;6293774;28;20064;-79
2021/07/12 08:26:42;;;;;;;4.30;3.22;;;23.90;96.10;;;;;;6277244;28;20028;-81
2021/07/12 08:29:42;;;;;;;4.38;3.17;;;23.90;96.00;;;;;;6294131;28;20055;-80
2021/07/12 08:32:43;;;;;;;3.65;3.20;;;24.00;96.00;;;;;;6293355;28;20044;-81
2021/07/12 08:35:44;;;;;;;5.00;2.87;;;24.10;96.20;;;;;;6276493;28;20029;-80
2021/07/12 08:38:45;;;;;;;4.40;3.40;;;23.90;96.50;;;;;;6276603;28;20310;-80
2021/07/12 08:41:45;;;;;;;3.92;3.05;;;24.00;96.10;;;;;;6292962;28;20477;-80
2021/07/12 08:44:46;;;;;;;3.45;3.03;;;24.10;96.50;;;;;;6259884;28;20032;-80
2021/07/12 08:47:47;;;;;;;3.72;2.85;;;23.90;96.20;;;;;;6293136;28;20035;-82
2021/07/12 08:50:47;;;;;;;4.40;3.10;;;23.80;96.50;;;;;;6292429;28;20520;-81
2021/07/12 08:53:48;;;;;;;4.80;3.53;;;23.80;95.80;;;;;;6275791;28;20059;-82
2021/07/12 08:56:49;;;;;;;5.57;3.33;;;23.60;96.00;;;;;;6275557;28;20112;-81
2021/07/12 08:59:49;;;;;;;4.68;3.50;;;23.50;96.30;;;;;;6276043;28;20030;-83
2021/07/12 09:02:50;;;;;;;6.78;3.20;;;23.40;96.10;;;;;;6276176;28;20032;-82
2021/07/12 09:05:51;;;;;;;5.83;3.37;;;23.50;96.30;;;;;;6275026;28;20067;-84
2021/07/12 09:08:56;;;;;;;5.43;3.23;;;23.40;96.90;;;;;;6292458;28;20020;-82
2021/07/12 09:11:57;;;;;;;3.80;3.15;;;23.30;96.20;;;;;;6258739;28;20119;-82
2021/07/12 09:15:05;;;;;;;4.63;3.13;;;23.30;97.20;;;;;;6275829;28;20027;-84
2021/07/12 09:18:06;;;;;;;3.95;2.85;;;23.40;96.80;;;;;;6275408;28;20501;-82
2021/07/12 09:21:16;;;;;;;5.00;3.27;;;23.60;96.90;;;;;;6275603;28;20036;-83
2021/07/12 09:24:26;;;;;;;3.53;3.22;;;23.80;96.00;;;;;;6275647;28;20543;-84
2021/07/12 09:27:27;;;;;;;4.32;3.45;;;23.90;95.60;;;;;;6275683;28;20028;-84
2021/07/12 09:30:32;;;;;;;6.60;3.35;;;24.70;95.40;;;;;;6258588;28;20036;-82
2021/07/12 09:33:32;;;;;;;3.53;2.92;;;25.50;94.00;;;;;;6275392;28;20051;-82
2021/07/12 09:36:33;;;;;;;3.60;3.20;;;26.20;92.70;;;;;;6274998;28;20482;-82
2021/07/12 09:39:37;;;;;;;4.90;3.47;;;26.50;91.90;;;;;;6275784;28;20405;-82
2021/07/12 09:42:49;;;;;;;4.57;3.17;;;27.10;91.80;;;;;;6292113;28;20078;-82
2021/07/12 09:45:50;;;;;;;5.68;3.25;;;27.60;90.90;;;;;;6258666;28;20033;-82
2021/07/12 09:49:13;;;;;;;5.33;3.07;;;28.20;90.40;;;;;;6258341;28;20477;-82
2021/07/12 09:52:18;;;;;;;4.28;3.35;;;29.00;93.70;;;;;;6291315;28;20061;-82
2021/07/12 09:55:22;;;;;;;5.13;3.10;;;29.50;86.80;;;;;;6258793;28;20387;-82
2021/07/12 09:58:27;;;;;;;3.50;3.00;;;30.10;84.50;;;;;;6291319;28;20120;-83
2021/07/12 10:01:29;;;;;;;3.88;3.00;;;30.50;80.60;;;;;;6275250;28;20037;-82
2021/07/12 10:04:29;;;;;;;4.10;3.03;;;30.20;79.60;;;;;;6291378;28;20024;-82
2021/07/12 10:07:30;;;;;;;3.73;3.03;;;30.20;80.60;;;;;;6275201;28;20060;-82
2021/07/12 10:10:31;;;;;;;3.93;3.17;;;30.20;82.10;;;;;;6257986;28;20382;-82
2021/07/12 10:13:32;;;;;;;3.60;3.00;;;30.40;88.20;;;;;;6274601;28;20040;-82
2021/07/12 10:16:32;;;;;;;4.10;2.80;;;30.80;78.40;;;;;;6274402;28;20062;-82
2021/07/12 10:19:33;;;;;;;4.73;3.27;;;30.70;77.70;;;;;;6291556;28;20437;-82
2021/07/12 10:22:35;;;;;;;3.63;3.28;;;30.20;78.00;;;;;;6275026;28;20043;-82
2021/07/12 10:25:36;;;;;;;4.20;2.83;;;30.10;79.90;;;;;;6272830;28;20036;-82
2021/07/12 10:28:41;;;;;;;3.50;3.20;;;29.90;80.30;;;;;;6263012;28;20040;-82
2021/07/12 10:31:55;;;;;;;6.38;3.00;;;29.90;97.60;;;;;;6279355;28;20102;-82
2021/07/12 10:34:56;;;;;;;3.33;3.03;;;29.90;90.70;;;;;;6295513;28;20032;-84
2021/07/12 10:38:00;;;;;;;3.30;3.00;;;30.20;78.50;;;;;;6262694;28;20120;-82
2021/07/12 10:41:01;;;;;;;4.07;3.15;;;30.40;80.50;;;;;;6262503;28;20043;-83
2021/07/12 10:44:01;;;;;;;4.07;2.95;;;30.40;79.50;;;;;;6278928;28;20028;-84
2021/07/12 10:47:02;;;;;;;3.47;3.10;;;30.60;79.20;;;;;;6278995;28;20032;-85
2021/07/12 10:50:33;;;;;;;3.40;3.10;;;30.70;78.90;;;;;;6278643;28;20131;-82
2021/07/12 10:53:34;;;;;;;4.30;3.15;;;30.30;78.60;;;;;;6281460;28;20045;-82
2021/07/12 10:56:56;;;;;;;4.65;3.15;;;30.20;89.30;;;;;;6279232;28;20032;-85
2021/07/12 11:00:08;;;;;;;4.57;3.00;;;30.00;79.10;;;;;;6280116;28;20359;-82
2021/07/12 11:03:27;;;;;;;;;;;29.90;79.60;;;;;;6262497;28;20123;-81
2021/07/12 11:06:50;;;;;;;4.50;3.30;;;29.00;77.50;;;;;;6296779;28;19916;-82
2021/07/12 11:10:00;;;;;;;5.57;3.40;;;29.30;78.10;;;;;;6281442;28;20032;-82
2021/07/12 11:13:02;;;;;;;4.63;3.38;;;29.00;79.50;;;;;;6263526;28;20102;-82
2021/07/12 11:16:16;;;;;;;4.40;3.33;;;29.00;79.90;;;;;;6278544;28;20074;-84
2021/07/12 11:19:28;;;;;;;4.80;3.40;;;29.10;79.50;;;;;;6278421;28;20036;-82
2021/07/12 11:22:28;;;;;;;;;;;29.30;78.50;;;;;;6295748;28;20036;-83
2021/07/12 11:25:42;;;;;;;5.00;3.70;;;29.70;81.30;;;;;;6295012;28;19947;-83
2021/07/12 11:28:43;;;;;;;3.53;3.22;;;30.00;74.60;;;;;;6278537;28;20025;-82
2021/07/12 11:31:54;;;;;;;3.83;3.22;;;30.20;72.10;;;;;;6261550;28;20052;-82
2021/07/12 11:34:55;;;;;;;3.75;3.35;;;30.10;72.40;;;;;;6294539;28;20029;-83
2021/07/12 11:38:03;;;;;;;4.67;3.40;;;30.00;73.30;;;;;;6277802;28;20048;-82
2021/07/12 11:41:06;;;;;;;4.72;3.38;;;30.00;73.80;;;;;;6278602;28;20028;-83
2021/07/12 11:44:11;;;;;;;3.72;3.20;;;29.60;75.40;;;;;;6261191;28;20059;-82
2021/07/12 11:47:16;;;;;;;4.72;3.60;;;29.20;76.80;;;;;;6278589;28;20370;-83
2021/07/12 11:50:19;;;;;;;3.72;3.33;;;29.00;76.50;;;;;;6260832;28;20147;-82
2021/07/12 11:53:19;;;;;;;5.95;3.55;;;29.00;77.00;;;;;;6277703;28;20106;-82
2021/07/12 11:56:20;;;;;;;4.23;3.83;;;29.10;79.30;;;;;;6277398;28;20029;-82
2021/07/12 11:59:27;;;;;;;4.33;3.90;;;29.00;79.40;;;;;;6294364;28;20020;-82
2021/07/12 12:02:28;;;;;;;3.40;3.10;;;29.10;81.80;;;;;;6295239;28;20492;-84
2021/07/12 12:05:29;;;;;;;4.00;3.37;;;29.30;80.50;;;;;;6260727;28;20043;-83
2021/07/12 12:09:08;;;;;;;3.58;3.15;;;29.50;80.40;;;;;;6294003;28;20459;-83
2021/07/12 12:12:08;;;;;;;3.72;3.33;;;29.50;76.20;;;;;;6263272;28;20123;-82
2021/07/12 12:15:11;;;;;;;4.30;3.47;;;29.10;77.50;;;;;;6276792;28;20138;-84
2021/07/12 12:18:16;;;;;;;5.22;3.53;;;28.70;79.80;;;;;;6295162;28;20036;-84
2021/07/12 12:21:17;;;;;;;5.72;3.45;;;28.90;82.20;;;;;;6293855;28;20039;-82
2021/07/12 12:24:17;;;;;;;4.60;3.60;;;28.90;82.20;;;;;;6276752;28;20064;-82
2021/07/12 12:27:18;;;;;;;8.87;3.43;;;29.00;83.30;;;;;;6276454;28;20120;-83
2021/07/12 12:30:19;;;;;;;6.23;3.63;;;29.20;83.90;;;;;;6276843;28;20457;-82
2021/07/12 12:33:30;;;;;;;3.67;3.23;;;29.30;79.80;;;;;;6276670;28;20041;-82
2021/07/12 12:36:37;;;;;;;;;;;29.30;81.40;;;;;;6277324;28;20032;-82
2021/07/12 12:39:38;;;;;;;3.40;2.97;;;29.30;82.40;;;;;;6292760;28;19957;-82
2021/07/12 12:42:38;;;;;;;4.13;3.13;;;29.30;82.90;;;;;;6276611;28;20029;-82
2021/07/12 12:45:47;;;;;;;3.93;3.50;;;29.30;82.10;;;;;;6276739;28;20040;-82
2021/07/12 12:48:47;;;;;;;5.30;3.80;;;29.30;82.80;;;;;;6276117;28;20016;-83
2021/07/12 12:51:58;;;;;;;4.20;3.47;;;29.00;82.00;;;;;;6275834;28;20048;-83
2021/07/12 12:55:08;;;;;;;5.10;4.07;;;28.90;82.20;;;;;;6292564;28;20044;-84
2021/07/12 12:58:11;;;;;;;4.13;3.73;;;28.60;84.00;;;;;;6277121;28;20032;-82
2021/07/12 13:01:11;;;;;;;6.90;3.53;;;28.30;86.10;;;;;;6275882;28;20021;-82
2021/07/12 13:04:14;;;;;;;5.17;3.53;;;28.00;86.20;;;;;;6292364;28;20028;-82
2021/07/12 13:07:24;;;;;;;4.68;3.83;;;27.70;86.60;;;;;;6259146;28;20036;-81
2021/07/12 13:10:26;;;;;;;4.50;3.85;;;27.40;86.80;;;;;;6277225;28;20025;-81
2021/07/12 13:13:27;;;;;;;11.18;4.88;;;27.10;88.80;;;;;;6259415;28;20044;-82
2021/07/12 13:16:28;;;;;;;17.55;5.30;;;27.10;88.80;;;;;;6276046;28;20118;-82
2021/07/12 13:19:28;;;;;;;6.17;3.93;;;27.00;90.00;;;;;;6275158;28;20054;-82
2021/07/12 13:22:30;;;;;;;5.30;3.80;;;26.80;90.90;;;;;;6275403;28;20052;-83
2021/07/12 13:25:37;;;;;;;4.28;3.60;;;26.80;90.70;;;;;;6291862;28;20028;-81
2021/07/12 13:28:38;;;;;;;4.78;3.92;;;26.80;90.80;;;;;;6292037;28;20024;-84
2021/07/12 13:31:38;;;;;;;4.07;3.50;;;26.80;90.70;;;;;;6275528;28;20032;-83
2021/07/12 13:35:09;;;;;;;6.23;3.43;;;26.80;90.70;;;;;;6275092;28;20032;-84
2021/07/12 13:38:11;;;;;;;7.05;3.97;;;26.90;90.50;;;;;;6223469;28;20052;-82
2021/07/12 13:41:12;;;;;;;5.85;3.83;;;26.90;90.40;;;;;;6239678;28;20041;-82
2021/07/12 13:44:12;;;;;;;5.17;3.73;;;26.90;90.30;;;;;;6240345;28;20581;-81
2021/07/12 13:47:13;;;;;;;6.40;4.03;;;27.00;90.70;;;;;;6239685;28;20415;-82
2021/07/12 13:50:18;;;;;;;4.30;3.90;;;27.00;91.30;;;;;;6223357;28;20558;-84
2021/07/12 13:53:19;;;;;;;6.10;3.80;;;27.10;91.20;;;;;;6207053;28;20442;-82
2021/07/12 13:56:19;;;;;;;7.03;3.70;;;27.20;91.00;;;;;;6207291;28;20075;-84
2021/07/12 13:59:20;;;;;;;4.07;3.67;;;27.00;91.00;;;;;;6223335;28;20041;-82
2021/07/12 14:02:20;;;;;;;10.30;6.37;;;27.00;91.10;;;;;;6207217;28;20455;-82
2021/07/12 14:05:22;;;;;;;10.17;5.57;;;26.90;92.00;;;;;;6223472;28;20033;-82
2021/07/12 14:08:22;;;;;;;14.73;7.13;;;26.70;93.10;;;;;;6206800;28;20073;-83
2021/07/12 14:11:23;;;;;;;8.70;5.37;;;26.60;92.50;;;;;;6223790;28;20068;-82
2021/07/12 14:14:23;;;;;;;15.13;6.67;;;26.50;92.70;;;;;;6234774;28;20135;-82
2021/07/12 14:17:24;;;;;;;13.30;7.27;;;26.40;93.00;;;;;;6274703;28;20031;-82
2021/07/12 14:20:25;;;;;;;7.60;5.17;;;26.30;93.10;;;;;;6291197;28;20095;-81
2021/07/12 14:23:25;;;;;;;7.00;3.93;;;26.10;92.80;;;;;;6274599;28;20032;-82
2021/07/12 14:26:26;;;;;;;5.13;4.40;;;25.80;94.20;;;;;;6274517;28;20028;-83
2021/07/12 14:29:26;;;;;;;5.50;4.70;;;25.60;94.90;;;;;;6274381;28;20445;-82
2021/07/12 14:32:27;;;;;;;7.73;4.83;;;25.00;95.20;;;;;;6292474;28;20101;-82
2021/07/12 14:35:28;;;;;;;6.40;4.23;;;25.50;95.10;;;;;;6274875;28;20035;-85
2021/07/12 14:38:28;;;;;;;5.20;4.20;;;25.50;95.40;;;;;;6274677;28;20028;-80
2021/07/12 14:41:29;;;;;;;5.77;4.00;;;25.50;95.70;;;;;;6274413;28;20463;-84
2021/07/12 14:44:32;;;;;;;4.90;4.00;;;25.40;96.10;;;;;;6274364;28;20028;-81
2021/07/12 14:47:33;;;;;;;7.88;4.10;;;25.40;95.30;;;;;;6274322;28;20051;-83
2021/07/12 14:50:33;;;;;;;4.90;3.60;;;25.40;95.90;;;;;;6274321;28;20048;-82
2021/07/12 14:53:34;;;;;;;6.73;4.33;;;25.00;96.30;;;;;;6274262;28;20102;-82
2021/07/12 14:56:35;;;;;;;7.10;4.40;;;25.00;96.30;;;;;;6274834;28;20028;-80
2021/07/12 14:59:35;;;;;;;6.27;4.40;;;24.80;98.00;;;;;;6274041;28;20390;-81
2021/07/12 15:02:36;;;;;;;9.03;4.60;;;24.70;98.20;;;;;;6258469;28;20494;-86
2021/07/12 15:05:37;;;;;;;5.07;3.93;;;24.80;98.80;;;;;;6257588;28;20028;-85
2021/07/12 15:08:37;;;;;;;7.17;4.13;;;24.60;98.80;;;;;;6272822;28;20021;-83
2021/07/12 15:11:38;;;;;;;5.67;4.60;;;24.50;99.10;;;;;;6292651;28;20037;-87
2021/07/12 15:14:39;;;;;;;5.83;3.90;;;24.80;99.20;;;;;;6294507;28;20516;-80
2021/07/12 15:17:39;;;;;;;6.33;4.20;;;24.80;98.80;;;;;;6294712;28;20592;-81
2021/07/12 15:20:40;;;;;;;4.57;3.73;;;24.90;97.70;;;;;;6277047;28;20048;-80
2021/07/12 15:23:40;;;;;;;6.73;4.17;;;25.00;97.70;;;;;;6294967;28;20696;-81
2021/07/12 15:26:41;;;;;;;4.63;3.60;;;25.20;98.00;;;;;;6294573;28;20025;-80
2021/07/12 15:29:42;;;;;;;5.63;3.63;;;25.60;98.40;;;;;;6294718;28;20064;-80
2021/07/12 15:32:42;;;;;;;5.67;4.07;;;25.50;96.50;;;;;;6294432;28;20028;-81
2021/07/12 15:35:43;;;;;;;4.73;4.23;;;25.70;96.70;;;;;;6294439;28;20386;-80
2021/07/12 15:38:43;;;;;;;5.27;3.90;;;25.80;97.10;;;;;;6294596;28;20043;-81
2021/07/12 15:41:44;;;;;;;5.93;4.03;;;25.90;96.10;;;;;;6295192;28;20158;-80
2021/07/12 15:44:45;;;;;;;4.73;4.23;;;26.10;95.40;;;;;;6277663;28;20044;-80
2021/07/12 15:47:46;;;;;;;4.50;4.10;;;26.10;95.60;;;;;;6277522;28;20116;-81
2021/07/12 15:50:47;;;;;;;5.67;3.97;;;26.10;95.70;;;;;;6276912;28;20551;-81
2021/07/12 15:53:47;;;;;;;5.50;4.33;;;26.00;95.30;;;;;;6292972;28;20055;-80
2021/07/12 15:56:48;;;;;;;6.23;4.20;;;26.00;94.90;;;;;;6292723;28;20028;-78